createdAt,value
2022-10-19T00:00:44.437Z,102634.84
2022-10-19T00:03:41.683Z,102620.25
2022-10-19T00:06:39.228Z,102628.16
2022-10-19T00:09:36.530Z,102613.81
2022-10-19T00:12:33.266Z,102609.19
2022-10-19T00:15:30.340Z,102601.88
2022-10-19T00:18:27.376Z,102582.84
2022-10-19T00:21:24.445Z,102602.38
2022-10-19T00:24:21.371Z,102608.22
2022-10-19T00:27:17.926Z,102607.56
2022-10-19T00:30:15.431Z,102608.56
2022-10-19T00:33:12.473Z,102615.88
2022-10-19T00:36:36.722Z,102629.69
2022-10-19T00:39:34.103Z,102634.34
2022-10-19T00:42:31.944Z,102630.81
2022-10-19T00:45:29.173Z,102632.50
2022-10-19T00:48:30.855Z,102623.91
2022-10-19T00:51:28.553Z,102618.03
2022-10-19T00:54:25.395Z,102621.47
2022-10-19T00:57:22.126Z,102619.66
2022-10-19T01:00:19.284Z,102620.63
2022-10-19T01:03:16.010Z,102630.47
2022-10-19T01:06:14.611Z,102645.56
2022-10-19T01:09:11.184Z,102657.00
2022-10-19T01:12:22.896Z,102647.94
2022-10-19T01:15:10.458Z,102661.59
2022-10-19T01:18:24.136Z,102653.75
2022-10-19T01:21:42.511Z,102657.91
2022-10-19T01:24:45.369Z,102655.75
2022-10-19T01:28:10.355Z,102648.94
2022-10-19T01:31:42.587Z,102643.28
2022-10-19T01:35:01.636Z,102644.13
2022-10-19T01:38:11.000Z,102639.28
2022-10-19T01:41:27.333Z,102636.25
2022-10-19T01:44:31.349Z,102639.75
2022-10-19T01:48:02.264Z,102648.94
2022-10-19T01:51:01.865Z,102644.56
2022-10-19T01:54:03.045Z,102650.25
2022-10-19T01:57:00.339Z,102632.56
2022-10-19T01:59:57.606Z,102633.06
2022-10-19T02:02:54.571Z,102648.56
2022-10-19T02:05:51.105Z,102620.91
2022-10-19T02:08:49.114Z,102623.91
2022-10-19T02:11:53.357Z,102626.03
2022-10-19T02:14:54.718Z,102627.09
2022-10-19T02:17:52.866Z,102629.91
2022-10-19T02:20:50.307Z,102635.38
2022-10-19T02:23:49.314Z,102652.72
2022-10-19T02:26:49.356Z,102650.91
2022-10-19T02:29:46.455Z,102646.22
2022-10-19T02:32:43.644Z,102645.06
2022-10-19T02:35:40.536Z,102645.56
2022-10-19T02:38:37.301Z,102651.59
2022-10-19T02:42:04.975Z,102657.75
2022-10-19T02:45:24.455Z,102644.75
2022-10-19T02:48:23.063Z,102637.91
2022-10-19T02:51:34.814Z,102636.78
2022-10-19T02:54:32.363Z,102644.28
2022-10-19T02:57:29.141Z,102640.94
2022-10-19T03:00:26.063Z,102634.56
2022-10-19T03:03:23.532Z,102629.56
2022-10-19T03:06:20.341Z,102641.06
2022-10-19T03:09:17.567Z,102639.72
2022-10-19T03:12:14.492Z,102641.50
2022-10-19T03:15:15.376Z,102637.03
2022-10-19T03:18:12.243Z,102627.72
2022-10-19T03:21:11.136Z,102622.75
2022-10-19T03:24:08.146Z,102627.75
2022-10-19T03:27:05.257Z,102633.44
2022-10-19T03:30:02.329Z,102619.09
2022-10-19T03:32:59.396Z,102615.91
2022-10-19T03:36:35.125Z,102620.88
2022-10-19T03:39:32.186Z,102621.16
2022-10-19T03:42:29.352Z,102619.94
2022-10-19T03:45:26.389Z,102624.31
2022-10-19T03:48:23.270Z,102622.09
2022-10-19T03:51:25.010Z,102636.28
2022-10-19T03:54:25.034Z,102636.78
2022-10-19T03:57:24.570Z,102630.09
2022-10-19T04:00:21.346Z,102635.88
2022-10-19T04:03:18.557Z,102634.88
2022-10-19T04:06:19.777Z,102641.13
2022-10-19T04:09:20.597Z,102655.53
2022-10-19T04:12:17.526Z,102649.25
2022-10-19T04:15:14.687Z,102646.69
2022-10-19T04:18:11.507Z,102662.00
2022-10-19T04:21:21.234Z,102662.69
2022-10-19T04:24:18.625Z,102649.97
2022-10-19T04:27:15.663Z,102655.66
2022-10-19T04:30:12.549Z,102653.16
2022-10-19T04:33:09.129Z,102660.03
2022-10-19T04:36:08.446Z,102655.97
2022-10-19T04:39:05.311Z,102656.31
2022-10-19T04:42:02.503Z,102654.63
2022-10-19T04:44:59.615Z,102647.31
2022-10-19T04:47:56.825Z,102659.16
2022-10-19T04:50:55.756Z,102653.59
2022-10-19T04:53:55.595Z,102657.50
2022-10-19T04:56:55.419Z,102658.88
2022-10-19T04:59:52.437Z,102674.28
2022-10-19T05:02:49.590Z,102667.34
2022-10-19T05:05:46.445Z,102662.25
2022-10-19T05:08:43.753Z,102667.28
2022-10-19T05:11:40.617Z,102671.53
2022-10-19T05:14:39.099Z,102660.03
2022-10-19T05:17:39.600Z,102648.88
2022-10-19T05:20:36.517Z,102653.53
2022-10-19T05:26:35.145Z,102636.97
2022-10-19T05:29:33.978Z,102631.75
2022-10-19T05:32:31.666Z,102644.56
2022-10-19T05:35:28.675Z,102652.22
2022-10-19T05:38:25.647Z,102647.91
2022-10-19T05:41:22.868Z,102640.34
2022-10-19T05:44:23.864Z,102639.00
2022-10-19T05:47:21.529Z,102629.31
2022-10-19T05:50:18.364Z,102637.69
2022-10-19T05:53:15.490Z,102640.44
2022-10-19T05:56:21.129Z,102624.22
2022-10-19T05:59:19.329Z,102642.44
2022-10-19T06:02:16.580Z,102652.00
2022-10-19T06:05:13.497Z,102644.28
2022-10-19T06:08:10.506Z,102648.03
2022-10-19T06:11:10.972Z,102659.41
2022-10-19T06:14:13.581Z,102649.59
2022-10-19T06:17:10.831Z,102646.91
2022-10-19T06:20:08.101Z,102645.31
2022-10-19T06:23:05.730Z,102649.41
2022-10-19T06:26:15.157Z,102647.19
2022-10-19T06:29:12.402Z,102644.75
2022-10-19T06:32:09.844Z,102657.84
2022-10-19T06:35:07.159Z,102659.31
2022-10-19T06:38:04.886Z,102662.00
2022-10-19T06:41:02.406Z,102665.31
2022-10-19T06:43:59.421Z,102669.94
2022-10-19T06:46:56.286Z,102675.31
2022-10-19T06:49:53.816Z,102684.91
2022-10-19T06:52:50.631Z,102687.56
2022-10-19T06:55:47.366Z,102678.31
2022-10-19T06:58:44.791Z,102680.44
2022-10-19T07:01:41.540Z,102687.81
2022-10-19T07:04:38.870Z,102676.06
2022-10-19T07:07:36.160Z,102691.44
2022-10-19T07:10:33.856Z,102703.34
2022-10-19T07:13:30.903Z,102690.47
2022-10-19T07:16:27.442Z,102702.63
2022-10-19T07:19:27.586Z,102697.63
2022-10-19T07:22:28.090Z,102692.44
2022-10-19T07:25:26.831Z,102701.69
2022-10-19T07:28:23.659Z,102700.31
2022-10-19T07:31:21.866Z,102692.81
2022-10-19T07:34:18.569Z,102703.28
2022-10-19T07:37:15.488Z,102710.91
2022-10-19T07:40:13.252Z,102702.28
2022-10-19T07:43:10.700Z,102702.13
2022-10-19T07:46:18.733Z,102714.44
2022-10-19T07:49:16.459Z,102710.13
2022-10-19T07:52:13.873Z,102713.16
2022-10-19T07:55:10.546Z,102703.09
2022-10-19T07:58:07.469Z,102710.97
2022-10-19T08:01:06.466Z,102722.00
2022-10-19T08:07:20.828Z,102720.31
2022-10-19T08:10:17.907Z,102716.50
2022-10-19T08:13:14.734Z,102706.97
2022-10-19T08:16:29.111Z,102716.00
2022-10-19T08:19:26.709Z,102718.81
2022-10-19T08:22:23.960Z,102719.16
2022-10-19T08:25:21.789Z,102715.97
2022-10-19T08:28:18.475Z,102721.66
2022-10-19T08:31:17.480Z,102723.84
2022-10-19T08:34:14.631Z,102710.81
2022-10-19T08:37:26.126Z,102702.44
2022-10-19T08:40:29.861Z,102711.25
2022-10-19T08:43:38.523Z,102707.78
2022-10-19T08:46:44.687Z,102698.59
2022-10-19T08:49:41.605Z,102695.25
2022-10-19T08:52:38.909Z,102693.25
2022-10-19T08:56:03.744Z,102702.94
2022-10-19T08:59:34.073Z,102695.09
2022-10-19T09:02:41.189Z,102703.59
2022-10-19T09:05:50.585Z,102692.25
2022-10-19T09:08:48.624Z,102698.09
2022-10-19T09:11:50.523Z,102695.09
2022-10-19T09:14:55.228Z,102688.56
2022-10-19T09:17:52.978Z,102684.56
2022-10-19T09:20:50.847Z,102701.59
2022-10-19T09:24:08.226Z,102690.56
2022-10-19T09:27:05.761Z,102697.97
2022-10-19T09:30:04.715Z,102688.38
2022-10-19T09:33:02.355Z,102689.44
2022-10-19T09:36:00.070Z,102697.81
2022-10-19T09:38:57.757Z,102692.50
2022-10-19T09:41:56.126Z,102690.00
2022-10-19T09:44:53.611Z,102693.75
2022-10-19T09:47:50.773Z,102690.75
2022-10-19T09:50:51.859Z,102688.25
2022-10-19T09:53:55.484Z,102698.41
2022-10-19T09:56:53.747Z,102681.38
2022-10-19T09:59:52.350Z,102691.75
2022-10-19T10:02:51.318Z,102658.31
2022-10-19T10:05:48.598Z,102668.19
2022-10-19T10:08:47.509Z,102669.78
2022-10-19T10:11:46.292Z,102661.28
2022-10-19T10:14:44.065Z,102672.28
2022-10-19T10:17:40.630Z,102668.75
2022-10-19T10:20:37.633Z,102684.72
2022-10-19T10:23:36.414Z,102684.91
2022-10-19T10:26:42.211Z,102690.59
2022-10-19T10:29:39.547Z,102685.25
2022-10-19T10:32:38.464Z,102682.22
2022-10-19T10:35:36.021Z,102686.06
2022-10-19T10:38:44.114Z,102682.88
2022-10-19T10:41:41.733Z,102673.34
2022-10-19T10:44:39.306Z,102665.75
2022-10-19T10:47:39.107Z,102667.63
2022-10-19T10:50:36.804Z,102666.66
2022-10-19T10:53:40.530Z,102669.00
2022-10-19T10:56:40.865Z,102664.00
2022-10-19T10:59:57.482Z,102669.69
2022-10-19T11:02:57.538Z,102650.31
2022-10-19T11:05:57.074Z,102649.81
2022-10-19T11:09:16.655Z,102649.47
2022-10-19T11:12:15.081Z,102645.47
2022-10-19T11:15:14.122Z,102641.94
2022-10-19T11:18:13.010Z,102641.72
2022-10-19T11:21:11.713Z,102634.03
2022-10-19T11:24:17.836Z,102633.28
2022-10-19T11:27:34.986Z,102636.59
2022-10-19T11:30:42.831Z,102613.91
2022-10-19T11:36:48.658Z,102603.53
2022-10-19T11:40:10.691Z,102616.84
2022-10-19T11:43:14.706Z,102611.44
2022-10-19T11:46:23.381Z,102586.47
2022-10-19T11:49:43.465Z,102580.59
2022-10-19T11:52:52.973Z,102602.03
2022-10-19T11:56:04.718Z,102595.69
2022-10-19T11:59:22.365Z,102598.81
2022-10-19T12:02:22.663Z,102587.66
2022-10-19T12:05:58.822Z,102590.13
2022-10-19T12:09:13.524Z,102583.56
2022-10-19T12:12:34.225Z,102564.91
2022-10-19T12:15:44.242Z,102559.63
2022-10-19T12:18:49.055Z,102548.41
2022-10-19T12:21:45.853Z,102562.22
2022-10-19T12:24:43.461Z,102558.34
2022-10-19T12:27:41.062Z,102560.66
2022-10-19T12:30:38.543Z,102554.50
2022-10-19T12:33:43.999Z,102555.69
2022-10-19T12:36:52.438Z,102551.81
2022-10-19T12:39:54.011Z,102541.56
2022-10-19T12:43:28.037Z,102537.75
2022-10-19T12:46:36.256Z,102546.69
2022-10-19T12:49:33.942Z,102545.00
2022-10-19T12:52:34.745Z,102541.16
2022-10-19T12:55:34.932Z,102520.84
2022-10-19T12:58:36.464Z,102511.63
2022-10-19T13:01:33.963Z,102516.72
2022-10-19T13:04:32.492Z,102505.78
2022-10-19T13:07:29.927Z,102500.19
2022-10-19T13:10:27.591Z,102496.72
2022-10-19T13:13:53.784Z,102510.91
2022-10-19T13:17:00.885Z,102502.00
2022-10-19T13:20:17.881Z,102511.31
2022-10-19T13:23:18.057Z,102484.22
2022-10-19T13:26:30.813Z,102479.03
2022-10-19T13:29:48.754Z,102473.72
2022-10-19T13:32:46.033Z,102471.50
2022-10-19T13:35:43.015Z,102468.66
2022-10-19T13:39:06.233Z,102451.72
2022-10-19T13:42:02.703Z,102458.31
2022-10-19T13:45:00.149Z,102460.81
2022-10-19T13:48:01.528Z,102447.31
2022-10-19T13:51:01.608Z,102438.66
2022-10-19T13:54:36.108Z,102447.94
2022-10-19T13:57:55.326Z,102436.63
2022-10-19T14:01:11.917Z,102431.94
2022-10-19T14:04:26.300Z,102431.28
2022-10-19T14:07:26.631Z,102436.63
2022-10-19T14:10:28.286Z,102435.66
2022-10-19T14:13:29.993Z,102439.06
2022-10-19T14:16:27.234Z,102428.28
2022-10-19T14:19:27.295Z,102423.09
2022-10-19T14:22:33.891Z,102430.38
2022-10-19T14:25:32.844Z,102426.63
2022-10-19T14:28:30.973Z,102434.19
2022-10-19T14:31:33.895Z,102443.25
2022-10-19T14:34:34.300Z,102428.19
2022-10-19T14:37:31.821Z,102417.47
2022-10-19T14:40:34.451Z,102402.97
2022-10-19T14:43:32.840Z,102379.00
2022-10-19T14:46:34.509Z,102389.47
2022-10-19T14:49:32.003Z,102386.72
2022-10-19T14:52:34.671Z,102378.28
2022-10-19T14:55:34.366Z,102376.22
2022-10-19T14:58:37.058Z,102374.91
2022-10-19T15:01:34.084Z,102371.66
2022-10-19T15:04:34.450Z,102372.19
2022-10-19T15:07:39.412Z,102376.63
2022-10-19T15:10:45.800Z,102371.59
2022-10-19T15:13:43.016Z,102374.66
2022-10-19T15:16:39.898Z,102388.84
2022-10-19T15:19:36.889Z,102382.19
2022-10-19T15:22:34.265Z,102382.38
2022-10-19T15:25:37.099Z,102371.41
2022-10-19T15:28:40.760Z,102376.25
2022-10-19T15:31:38.969Z,102362.00
2022-10-19T15:34:35.898Z,102356.41
2022-10-19T15:37:33.103Z,102357.81
2022-10-19T15:40:37.882Z,102349.72
2022-10-19T15:43:39.269Z,102351.69
2022-10-19T15:46:46.013Z,102353.16
2022-10-19T15:49:42.842Z,102350.28
2022-10-19T15:52:40.163Z,102345.94
2022-10-19T15:55:37.126Z,102327.91
2022-10-19T15:58:35.929Z,102327.34
2022-10-19T16:01:39.111Z,102332.94
2022-10-19T16:04:38.974Z,102335.09
2022-10-19T16:07:37.553Z,102337.53
2022-10-19T16:10:34.906Z,102336.19
2022-10-19T16:13:32.370Z,102333.16
2022-10-19T16:16:33.222Z,102328.69
2022-10-19T16:19:30.579Z,102328.28
2022-10-19T16:22:28.086Z,102333.75
2022-10-19T16:25:25.178Z,102333.38
2022-10-19T16:28:23.677Z,102327.16
2022-10-19T16:31:21.041Z,102326.00
2022-10-19T16:34:18.025Z,102315.22
2022-10-19T16:37:14.943Z,102319.19
2022-10-19T16:40:11.951Z,102334.38
2022-10-19T16:43:09.025Z,102334.72
2022-10-19T16:46:06.235Z,102343.94
2022-10-19T16:49:03.165Z,102349.91
2022-10-19T16:52:01.629Z,102350.72
2022-10-19T16:54:59.729Z,102350.94
2022-10-19T16:57:57.195Z,102336.50
2022-10-19T17:00:56.236Z,102341.38
2022-10-19T17:03:53.307Z,102328.69
2022-10-19T17:06:50.128Z,102332.53
2022-10-19T17:09:49.794Z,102340.38
2022-10-19T17:12:49.813Z,102338.69
2022-10-19T17:15:47.360Z,102336.34
2022-10-19T17:18:44.087Z,102343.72
2022-10-19T17:21:42.500Z,102342.88
2022-10-19T17:24:40.178Z,102332.88
2022-10-19T17:27:36.951Z,102332.19
2022-10-19T17:30:34.011Z,102337.19
2022-10-19T17:33:31.101Z,102320.03
2022-10-19T17:36:29.908Z,102317.19
2022-10-19T17:39:29.079Z,102314.53
2022-10-19T17:42:27.023Z,102308.28
2022-10-19T17:45:24.017Z,102317.44
2022-10-19T17:48:21.078Z,102321.59
2022-10-19T17:51:27.244Z,102306.47
2022-10-19T17:54:24.081Z,102293.38
2022-10-19T17:57:20.940Z,102295.50
2022-10-19T18:00:18.001Z,102290.19
2022-10-19T18:03:14.775Z,102289.72
2022-10-19T18:06:20.830Z,102303.75
2022-10-19T18:09:18.108Z,102299.47
2022-10-19T18:12:15.165Z,102294.31
2022-10-19T18:15:12.236Z,102290.16
2022-10-19T18:18:09.069Z,102293.03
2022-10-19T18:21:07.104Z,102281.31
2022-10-19T18:24:04.237Z,102276.13
2022-10-19T18:27:01.023Z,102270.97
2022-10-19T18:29:57.957Z,102268.94
2022-10-19T18:32:54.732Z,102248.09
2022-10-19T18:35:52.650Z,102256.44
2022-10-19T18:38:53.627Z,102255.03
2022-10-19T18:41:54.594Z,102255.78
2022-10-19T18:44:52.056Z,102261.06
2022-10-19T18:47:48.858Z,102255.56
2022-10-19T18:50:46.518Z,102242.53
2022-10-19T18:53:44.419Z,102253.69
2022-10-19T18:56:41.133Z,102252.78
2022-10-19T18:59:38.271Z,102249.63
2022-10-19T19:02:45.772Z,102252.69
2022-10-19T19:05:44.024Z,102252.47
2022-10-19T19:08:41.205Z,102249.16
2022-10-19T19:11:39.283Z,102250.00
2022-10-19T19:14:35.940Z,102247.13
2022-10-19T19:17:33.561Z,102245.47
2022-10-19T19:20:31.455Z,102242.50
2022-10-19T19:23:28.377Z,102251.50
2022-10-19T19:26:26.583Z,102238.78
2022-10-19T19:29:24.707Z,102247.47
2022-10-19T19:32:22.644Z,102264.97
2022-10-19T19:35:21.515Z,102265.38
2022-10-19T19:38:19.225Z,102263.19
2022-10-19T19:41:16.634Z,102264.59
2022-10-19T19:44:14.420Z,102256.41
2022-10-19T19:47:11.332Z,102256.13
2022-10-19T19:50:09.061Z,102244.97
2022-10-19T19:53:06.100Z,102243.88
2022-10-19T19:56:04.049Z,102242.53
2022-10-19T19:59:03.770Z,102234.59
2022-10-19T20:02:01.872Z,102229.81
2022-10-19T20:04:59.566Z,102221.31
2022-10-19T20:07:57.397Z,102212.66
2022-10-19T20:10:53.993Z,102204.69
2022-10-19T20:13:51.406Z,102203.31
2022-10-19T20:16:48.330Z,102202.19
2022-10-19T20:19:45.130Z,102205.16
2022-10-19T20:22:46.194Z,102205.69
2022-10-19T20:25:43.385Z,102209.03
2022-10-19T20:28:40.346Z,102208.38
2022-10-19T20:31:40.544Z,102213.38
2022-10-19T20:34:38.457Z,102215.09
2022-10-19T20:37:36.275Z,102206.97
2022-10-19T20:40:33.576Z,102204.47
2022-10-19T20:43:31.395Z,102193.63
2022-10-19T20:46:29.337Z,102192.66
2022-10-19T20:49:26.299Z,102185.69
2022-10-19T20:52:23.371Z,102180.41
2022-10-19T20:55:22.093Z,102183.06
2022-10-19T20:58:19.183Z,102181.81
2022-10-19T21:01:19.506Z,102173.47
2022-10-19T21:04:16.187Z,102165.78
2022-10-19T21:07:13.621Z,102155.44
2022-10-19T21:10:11.486Z,102154.63
2022-10-19T21:13:08.626Z,102151.78
2022-10-19T21:16:17.793Z,102151.78
2022-10-19T21:19:17.033Z,102153.06
2022-10-19T21:22:14.067Z,102155.75
2022-10-19T21:25:10.990Z,102158.31
2022-10-19T21:28:08.502Z,102151.34
2022-10-19T21:31:08.734Z,102142.44
2022-10-19T21:34:07.251Z,102140.66
2022-10-19T21:37:04.291Z,102148.59
2022-10-19T21:40:01.531Z,102143.47
2022-10-19T21:42:58.654Z,102138.44
2022-10-19T21:45:56.318Z,102132.13
2022-10-19T21:48:54.041Z,102134.66
2022-10-19T21:51:54.528Z,102124.31
2022-10-19T21:54:51.612Z,102109.66
2022-10-19T21:57:49.104Z,102098.00
2022-10-19T22:00:46.089Z,102099.91
2022-10-19T22:03:43.527Z,102094.19
2022-10-19T22:06:40.574Z,102093.19
2022-10-19T22:09:38.445Z,102103.31
2022-10-19T22:12:35.653Z,102098.53
2022-10-19T22:15:37.428Z,102100.41
2022-10-19T22:18:34.581Z,102080.34
2022-10-19T22:21:31.575Z,102082.72
2022-10-19T22:24:28.249Z,102080.81
2022-10-19T22:27:25.062Z,102079.66
2022-10-19T22:30:22.474Z,102084.31
2022-10-19T22:33:19.328Z,102079.84
2022-10-19T22:36:16.474Z,102093.22
2022-10-19T22:39:13.709Z,102079.56
2022-10-19T22:42:11.366Z,102081.72
2022-10-19T22:45:08.546Z,102053.56
2022-10-19T22:48:05.394Z,102048.91
2022-10-19T22:51:02.578Z,102046.31
2022-10-19T22:53:59.514Z,102037.34
2022-10-19T22:56:56.642Z,102031.88
2022-10-19T22:59:53.429Z,102037.00
2022-10-19T23:02:50.583Z,102030.19
2022-10-19T23:05:47.601Z,102032.41
2022-10-19T23:08:44.557Z,102019.06
2022-10-19T23:11:41.397Z,102010.53
2022-10-19T23:14:38.475Z,102003.00
2022-10-19T23:17:35.546Z,102000.38
2022-10-19T23:20:33.209Z,101988.06
2022-10-19T23:23:30.834Z,101993.13
2022-10-19T23:26:28.476Z,101984.91
2022-10-19T23:29:25.199Z,101974.19
2022-10-19T23:32:21.997Z,101986.00
2022-10-19T23:35:19.307Z,101992.84
2022-10-19T23:38:16.402Z,101981.63
2022-10-19T23:41:13.126Z,101986.66
2022-10-19T23:44:10.707Z,101978.63
2022-10-19T23:47:07.105Z,101979.81
2022-10-19T23:50:04.726Z,101976.69
2022-10-19T23:53:01.811Z,101973.66
2022-10-19T23:56:03.969Z,101977.72
2022-10-19T23:59:01.307Z,101976.44
